createdAt,value
2019-05-26T00:00:41.209Z,16.34
2019-05-26T00:03:14.725Z,16.27
2019-05-26T00:05:47.910Z,16.29
2019-05-26T00:08:21.181Z,16.35
2019-05-26T00:10:54.494Z,16.30
2019-05-26T00:13:27.894Z,16.25
2019-05-26T00:16:01.223Z,16.32
2019-05-26T00:18:34.823Z,16.21
2019-05-26T00:21:08.074Z,16.21
2019-05-26T00:23:41.566Z,16.08
2019-05-26T00:26:14.805Z,16.14
2019-05-26T00:28:48.019Z,16.03
2019-05-26T00:31:21.317Z,15.99
2019-05-26T00:33:54.635Z,15.94
2019-05-26T00:36:27.934Z,15.92
2019-05-26T00:39:01.252Z,16.00
2019-05-26T00:41:35.980Z,16.10
2019-05-26T00:44:09.271Z,16.11
2019-05-26T00:46:42.691Z,16.13
2019-05-26T00:49:16.231Z,16.12
2019-05-26T00:51:49.696Z,16.07
2019-05-26T00:54:23.219Z,15.95
2019-05-26T00:56:56.700Z,15.89
2019-05-26T00:59:29.953Z,15.89
2019-05-26T01:02:03.159Z,15.89
2019-05-26T01:04:36.443Z,15.86
2019-05-26T01:07:09.716Z,15.84
2019-05-26T01:09:43.265Z,15.86
2019-05-26T01:12:16.602Z,15.95
2019-05-26T01:14:50.028Z,16.02
2019-05-26T01:17:23.424Z,16.08
2019-05-26T01:19:56.674Z,15.98
2019-05-26T01:22:29.893Z,15.89
2019-05-26T01:25:03.214Z,15.94
2019-05-26T01:27:36.413Z,16.02
2019-05-26T01:30:10.290Z,15.95
2019-05-26T01:32:43.522Z,16.02
2019-05-26T01:35:17.124Z,16.02
2019-05-26T01:37:50.417Z,15.99
2019-05-26T01:40:26.681Z,16.03
2019-05-26T01:43:00.085Z,15.97
2019-05-26T01:45:33.369Z,15.96
2019-05-26T01:48:07.356Z,15.88
2019-05-26T01:50:40.554Z,15.81
2019-05-26T01:53:13.769Z,15.87
2019-05-26T01:55:47.017Z,15.87
2019-05-26T01:58:20.233Z,15.86
2019-05-26T02:00:53.514Z,15.82
2019-05-26T02:03:26.853Z,15.99
2019-05-26T02:06:00.113Z,16.04
2019-05-26T02:08:39.370Z,16.17
2019-05-26T02:11:08.344Z,16.21
2019-05-26T02:13:41.778Z,16.17
2019-05-26T02:16:15.254Z,16.11
2019-05-26T02:18:48.640Z,16.12
2019-05-26T02:21:22.033Z,16.06
2019-05-26T02:23:56.258Z,16.09
2019-05-26T02:26:29.841Z,15.86
2019-05-26T02:29:03.275Z,16.01
2019-05-26T02:31:36.412Z,15.99
2019-05-26T02:34:09.827Z,15.97
2019-05-26T02:36:43.117Z,16.07
2019-05-26T02:39:16.481Z,16.21
2019-05-26T02:41:49.657Z,16.37
2019-05-26T02:44:23.931Z,16.37
2019-05-26T02:46:57.023Z,16.41
2019-05-26T02:49:30.377Z,16.37
2019-05-26T02:52:03.709Z,16.34
2019-05-26T02:54:37.001Z,16.37
2019-05-26T02:57:10.434Z,16.35
2019-05-26T02:59:44.837Z,16.45
2019-05-26T03:02:18.321Z,16.53
2019-05-26T03:04:51.612Z,16.45
2019-05-26T03:07:27.597Z,16.39
2019-05-26T03:10:03.649Z,16.48
2019-05-26T03:12:41.776Z,16.52
2019-05-26T03:15:16.370Z,16.53
2019-05-26T03:17:52.617Z,16.56
2019-05-26T03:20:26.004Z,16.66
2019-05-26T03:23:01.034Z,16.61
2019-05-26T03:25:35.869Z,16.62
2019-05-26T03:28:09.395Z,16.63
2019-05-26T03:30:42.710Z,16.71
2019-05-26T03:33:16.088Z,16.69
2019-05-26T03:35:49.426Z,16.69
2019-05-26T03:38:22.793Z,16.66
2019-05-26T03:40:57.712Z,16.70
2019-05-26T03:43:31.199Z,16.77
2019-05-26T03:46:20.958Z,16.50
2019-05-26T03:48:54.599Z,16.47
2019-05-26T03:51:27.889Z,16.32
2019-05-26T03:54:01.378Z,16.29
2019-05-26T03:56:34.711Z,16.09
2019-05-26T03:59:08.050Z,16.04
2019-05-26T04:01:41.464Z,16.10
2019-05-26T04:04:14.754Z,16.16
2019-05-26T04:06:48.204Z,16.19
2019-05-26T04:09:21.547Z,16.19
2019-05-26T04:11:54.787Z,16.04
2019-05-26T04:14:28.060Z,16.09
2019-05-26T04:17:01.462Z,16.27
2019-05-26T04:19:34.870Z,16.30
2019-05-26T04:22:08.022Z,16.38
2019-05-26T04:24:42.613Z,16.62
2019-05-26T04:27:17.828Z,16.70
2019-05-26T04:29:51.068Z,16.98
2019-05-26T04:32:24.397Z,16.92
2019-05-26T04:34:57.677Z,17.13
2019-05-26T04:37:31.090Z,17.17
2019-05-26T04:40:25.092Z,17.45
2019-05-26T04:42:39.527Z,17.55
2019-05-26T04:45:13.228Z,17.69
2019-05-26T04:47:46.404Z,17.59
2019-05-26T04:50:19.604Z,17.68
2019-05-26T04:53:05.393Z,17.79
2019-05-26T04:55:28.357Z,18.02
2019-05-26T04:58:01.704Z,18.31
2019-05-26T05:00:36.035Z,18.18
2019-05-26T05:03:09.331Z,18.36
2019-05-26T05:05:42.457Z,18.37
2019-05-26T05:08:15.637Z,18.17
2019-05-26T05:10:48.804Z,18.26
2019-05-26T05:13:24.906Z,18.34
2019-05-26T05:15:57.215Z,18.51
2019-05-26T05:18:31.682Z,18.78
2019-05-26T05:21:05.034Z,19.01
2019-05-26T05:23:38.360Z,18.91
2019-05-26T05:26:11.422Z,19.06
2019-05-26T05:28:45.231Z,19.13
2019-05-26T05:31:18.659Z,18.75
2019-05-26T05:33:52.042Z,18.90
2019-05-26T05:36:25.355Z,19.32
2019-05-26T05:38:59.779Z,18.97
2019-05-26T05:41:32.872Z,19.04
2019-05-26T05:44:06.245Z,19.23
2019-05-26T05:46:39.646Z,18.93
2019-05-26T05:49:13.051Z,18.83
2019-05-26T05:51:46.513Z,19.12
2019-05-26T05:54:19.740Z,19.71
2019-05-26T05:56:55.649Z,19.83
2019-05-26T05:59:28.082Z,19.97
2019-05-26T06:02:01.387Z,19.78
2019-05-26T06:04:35.263Z,20.21
2019-05-26T06:07:08.639Z,20.23
2019-05-26T06:09:41.970Z,20.27
2019-05-26T06:12:15.687Z,19.94
2019-05-26T06:14:48.974Z,19.96
2019-05-26T06:17:22.385Z,19.59
2019-05-26T06:19:55.438Z,19.95
2019-05-26T06:22:28.707Z,20.15
2019-05-26T06:25:02.049Z,20.11
2019-05-26T06:27:35.331Z,20.33
2019-05-26T06:30:09.329Z,20.37
2019-05-26T06:32:42.724Z,20.50
2019-05-26T06:35:17.556Z,20.35
2019-05-26T06:37:50.832Z,20.75
2019-05-26T06:40:24.268Z,20.89
2019-05-26T06:42:57.673Z,21.06
2019-05-26T06:45:30.947Z,21.27
2019-05-26T06:48:04.367Z,21.39
2019-05-26T06:50:37.733Z,21.52
2019-05-26T06:53:11.232Z,21.96
2019-05-26T06:55:44.536Z,21.30
2019-05-26T06:58:17.618Z,21.80
2019-05-26T07:00:50.897Z,21.92
2019-05-26T07:03:24.186Z,21.67
2019-05-26T07:05:57.555Z,21.72
2019-05-26T07:08:30.785Z,21.91
2019-05-26T07:11:04.138Z,22.24
2019-05-26T07:13:37.528Z,21.99
2019-05-26T07:16:11.590Z,21.59
2019-05-26T07:18:44.808Z,22.20
2019-05-26T07:21:17.989Z,22.44
2019-05-26T07:23:51.397Z,23.42
2019-05-26T07:26:26.327Z,22.72
2019-05-26T07:28:59.709Z,22.25
2019-05-26T07:31:33.107Z,22.84
2019-05-26T07:34:06.605Z,22.52
2019-05-26T07:36:40.064Z,22.07
2019-05-26T07:39:13.242Z,20.96
2019-05-26T07:41:46.668Z,20.64
2019-05-26T07:44:20.056Z,20.92
2019-05-26T07:46:53.477Z,21.23
2019-05-26T07:49:26.676Z,21.88
2019-05-26T07:51:59.786Z,21.43
2019-05-26T07:54:33.051Z,21.23
2019-05-26T07:57:06.550Z,21.05
2019-05-26T07:59:39.770Z,20.75
2019-05-26T08:02:13.018Z,21.33
2019-05-26T08:04:46.344Z,21.86
2019-05-26T08:07:23.047Z,21.80
2019-05-26T08:09:55.143Z,21.35
2019-05-26T08:12:30.759Z,21.50
2019-05-26T08:15:03.843Z,21.58
2019-05-26T08:17:37.015Z,21.56
2019-05-26T08:20:11.489Z,21.55
2019-05-26T08:22:44.935Z,21.76
2019-05-26T08:25:19.091Z,21.91
2019-05-26T08:27:52.364Z,21.61
2019-05-26T08:30:25.697Z,21.59
2019-05-26T08:32:59.041Z,21.62
2019-05-26T08:35:32.412Z,21.96
2019-05-26T08:38:05.622Z,22.02
2019-05-26T08:40:38.908Z,22.42
2019-05-26T08:43:12.343Z,23.15
2019-05-26T08:45:45.497Z,25.43
2019-05-26T08:48:18.845Z,26.18
2019-05-26T08:50:51.989Z,24.43
2019-05-26T08:53:25.311Z,24.62
2019-05-26T08:55:58.681Z,24.98
2019-05-26T08:58:31.869Z,24.33
2019-05-26T09:01:05.148Z,24.51
2019-05-26T09:03:38.362Z,24.90
2019-05-26T09:06:11.854Z,23.68
2019-05-26T09:08:45.054Z,24.34
2019-05-26T09:11:18.318Z,24.59
2019-05-26T09:13:51.893Z,24.61
2019-05-26T09:16:25.244Z,27.37
2019-05-26T09:18:58.531Z,28.62
2019-05-26T09:21:31.809Z,26.85
2019-05-26T09:24:05.231Z,26.49
2019-05-26T09:26:38.703Z,28.44
2019-05-26T09:29:12.259Z,31.95
2019-05-26T09:31:47.849Z,32.48
2019-05-26T09:34:21.114Z,35.20
2019-05-26T09:36:57.049Z,36.25
2019-05-26T09:39:28.968Z,35.88
2019-05-26T09:42:02.085Z,36.07
2019-05-26T09:44:36.317Z,37.31
2019-05-26T09:47:09.471Z,36.70
2019-05-26T09:49:44.737Z,32.56
2019-05-26T09:52:18.923Z,29.82
2019-05-26T09:54:53.078Z,29.33
2019-05-26T09:57:26.351Z,28.21
2019-05-26T09:59:59.533Z,26.77
2019-05-26T10:02:34.067Z,26.53
2019-05-26T10:05:07.862Z,25.97
2019-05-26T10:07:41.212Z,24.27
2019-05-26T10:10:15.948Z,24.27
2019-05-26T10:12:49.188Z,24.14
2019-05-26T10:15:22.670Z,23.91
2019-05-26T10:17:56.094Z,23.99
2019-05-26T10:20:29.561Z,23.70
2019-05-26T10:23:02.667Z,23.54
2019-05-26T10:25:36.061Z,23.23
2019-05-26T10:28:09.360Z,23.55
2019-05-26T10:30:42.543Z,23.72
2019-05-26T10:33:15.777Z,23.90
2019-05-26T10:35:49.121Z,24.76
2019-05-26T10:38:22.241Z,29.33
2019-05-26T10:40:55.519Z,30.44
2019-05-26T10:43:28.626Z,30.16
2019-05-26T10:46:01.998Z,29.38
2019-05-26T10:48:35.318Z,28.49
2019-05-26T10:51:08.551Z,27.75
2019-05-26T10:53:41.782Z,28.57
2019-05-26T10:56:14.962Z,32.61
2019-05-26T10:58:48.191Z,30.64
2019-05-26T11:01:21.570Z,32.29
2019-05-26T11:03:54.877Z,33.16
2019-05-26T11:06:28.233Z,35.64
2019-05-26T11:09:01.440Z,37.38
2019-05-26T11:11:35.453Z,38.15
2019-05-26T11:14:08.836Z,37.18
2019-05-26T11:16:42.153Z,34.67
2019-05-26T11:19:15.515Z,33.89
2019-05-26T11:21:48.754Z,35.86
2019-05-26T11:24:22.340Z,38.07
2019-05-26T11:27:06.326Z,38.84
2019-05-26T11:29:30.778Z,41.34
2019-05-26T11:32:05.313Z,43.23
2019-05-26T11:34:38.813Z,41.65
2019-05-26T11:37:11.884Z,40.37
2019-05-26T11:39:45.503Z,36.24
2019-05-26T11:42:21.211Z,32.96
2019-05-26T11:44:54.683Z,32.65
2019-05-26T11:47:28.210Z,32.65
2019-05-26T11:50:01.552Z,30.98
2019-05-26T11:52:34.591Z,29.30
2019-05-26T11:55:08.568Z,28.71
2019-05-26T11:57:41.958Z,29.22
2019-05-26T12:00:16.794Z,34.72
2019-05-26T12:02:50.385Z,38.01
2019-05-26T12:05:23.572Z,38.71
2019-05-26T12:07:56.955Z,38.13
2019-05-26T12:10:30.263Z,38.44
2019-05-26T12:13:03.647Z,36.89
2019-05-26T12:15:36.954Z,38.25
2019-05-26T12:18:10.426Z,39.46
2019-05-26T12:20:44.072Z,39.92
2019-05-26T12:23:17.258Z,40.38
2019-05-26T12:25:50.539Z,39.12
2019-05-26T12:28:23.779Z,38.15
2019-05-26T12:30:56.789Z,39.57
2019-05-26T12:33:30.108Z,39.85
2019-05-26T12:36:03.512Z,37.98
2019-05-26T12:38:51.305Z,37.29
2019-05-26T12:41:24.650Z,37.28
2019-05-26T12:43:57.957Z,36.07
2019-05-26T12:46:31.433Z,36.40
2019-05-26T12:49:05.231Z,36.01
2019-05-26T12:51:38.428Z,32.31
2019-05-26T12:54:11.791Z,30.72
2019-05-26T12:56:45.188Z,34.20
2019-05-26T12:59:18.669Z,33.40
2019-05-26T13:01:51.776Z,32.11
2019-05-26T13:04:25.201Z,29.26
2019-05-26T13:06:58.584Z,27.87
2019-05-26T13:09:35.248Z,27.32
2019-05-26T13:12:08.780Z,25.68
2019-05-26T13:14:42.069Z,25.28
2019-05-26T13:17:15.437Z,24.82
2019-05-26T13:19:48.692Z,25.61
2019-05-26T13:22:22.044Z,25.61
2019-05-26T13:24:55.228Z,26.20
2019-05-26T13:27:28.660Z,30.73
2019-05-26T13:30:01.908Z,32.82
2019-05-26T13:32:35.212Z,34.37
2019-05-26T13:35:09.333Z,30.07
2019-05-26T13:37:42.736Z,26.77
2019-05-26T13:40:16.630Z,26.63
2019-05-26T13:42:49.846Z,25.86
2019-05-26T13:45:23.675Z,25.95
2019-05-26T13:47:57.144Z,25.43
2019-05-26T13:50:30.406Z,25.33
2019-05-26T13:53:03.958Z,24.92
2019-05-26T13:55:37.087Z,24.56
2019-05-26T13:58:10.328Z,25.90
2019-05-26T14:00:43.840Z,26.38
2019-05-26T14:03:17.227Z,26.29
2019-05-26T14:05:50.595Z,26.29
2019-05-26T14:08:23.696Z,26.40
2019-05-26T14:10:57.080Z,25.60
2019-05-26T14:13:30.367Z,25.69
2019-05-26T14:16:04.760Z,25.58
2019-05-26T14:18:38.017Z,26.44
2019-05-26T14:21:11.419Z,26.23
2019-05-26T14:23:44.688Z,26.62
2019-05-26T14:26:17.871Z,31.74
2019-05-26T14:28:51.064Z,28.47
2019-05-26T14:31:24.239Z,27.89
2019-05-26T14:33:57.573Z,27.93
2019-05-26T14:36:30.941Z,31.18
2019-05-26T14:39:06.006Z,35.10
2019-05-26T14:41:39.261Z,32.63
2019-05-26T14:44:12.582Z,33.95
2019-05-26T14:46:46.256Z,32.81
2019-05-26T14:49:19.476Z,32.98
2019-05-26T14:51:53.245Z,29.78
2019-05-26T14:54:26.456Z,32.58
2019-05-26T14:57:00.173Z,33.13
2019-05-26T14:59:33.400Z,33.75
2019-05-26T15:02:06.865Z,31.72
2019-05-26T15:04:40.048Z,33.71
2019-05-26T15:07:13.326Z,31.85
2019-05-26T15:09:46.465Z,31.77
2019-05-26T15:12:19.857Z,28.20
2019-05-26T15:14:53.132Z,27.00
2019-05-26T15:17:26.445Z,26.60
2019-05-26T15:20:00.074Z,28.70
2019-05-26T15:22:33.329Z,29.90
2019-05-26T15:25:08.095Z,30.48
2019-05-26T15:27:41.235Z,31.19
2019-05-26T15:30:17.598Z,30.78
2019-05-26T15:32:50.776Z,27.68
2019-05-26T15:35:24.103Z,26.65
2019-05-26T15:37:57.415Z,25.59
2019-05-26T15:40:30.926Z,24.72
2019-05-26T15:43:04.474Z,25.48
2019-05-26T15:45:38.796Z,28.22
2019-05-26T15:48:12.311Z,29.18
2019-05-26T15:50:45.600Z,28.98
2019-05-26T15:53:18.980Z,26.60
2019-05-26T15:55:52.502Z,28.69
2019-05-26T15:58:26.106Z,29.91
2019-05-26T16:00:59.485Z,30.33
2019-05-26T16:03:32.674Z,29.71
2019-05-26T16:06:06.500Z,30.35
2019-05-26T16:08:39.782Z,31.16
2019-05-26T16:11:13.618Z,31.44
2019-05-26T16:13:46.901Z,30.90
2019-05-26T16:16:20.180Z,30.79
2019-05-26T16:18:53.506Z,30.32
2019-05-26T16:21:28.402Z,29.40
2019-05-26T16:24:01.704Z,28.34
2019-05-26T16:26:34.994Z,28.69
2019-05-26T16:29:08.086Z,28.81
2019-05-26T16:31:41.281Z,27.80
2019-05-26T16:34:14.516Z,28.26
2019-05-26T16:36:48.121Z,26.01
2019-05-26T16:39:36.056Z,25.15
2019-05-26T16:41:56.962Z,24.09
2019-05-26T16:44:30.866Z,24.09
2019-05-26T16:47:04.252Z,23.32
2019-05-26T16:49:40.631Z,22.98
2019-05-26T16:52:13.909Z,22.51
2019-05-26T16:54:49.122Z,22.35
2019-05-26T16:57:23.074Z,22.13
2019-05-26T16:59:56.323Z,21.94
2019-05-26T17:02:33.085Z,21.70
2019-05-26T17:05:06.925Z,21.57
2019-05-26T17:07:40.417Z,21.48
2019-05-26T17:10:14.117Z,21.43
2019-05-26T17:12:47.385Z,21.14
2019-05-26T17:15:20.932Z,21.08
2019-05-26T17:17:54.171Z,20.97
2019-05-26T17:20:27.239Z,20.82
2019-05-26T17:23:00.466Z,20.66
2019-05-26T17:25:33.865Z,20.54
2019-05-26T17:28:07.143Z,20.44
2019-05-26T17:30:40.279Z,20.33
2019-05-26T17:33:13.661Z,20.25
2019-05-26T17:35:49.218Z,20.15
2019-05-26T17:38:22.696Z,20.06
2019-05-26T17:40:55.994Z,19.95
2019-05-26T17:43:33.070Z,19.85
2019-05-26T17:46:06.804Z,19.79
2019-05-26T17:48:40.386Z,19.69
2019-05-26T17:51:14.694Z,19.59
2019-05-26T17:53:47.974Z,19.49
2019-05-26T17:56:21.520Z,19.41
2019-05-26T17:58:54.999Z,19.32
2019-05-26T18:01:28.525Z,19.11
2019-05-26T18:04:01.988Z,19.12
2019-05-26T18:06:35.458Z,19.05
2019-05-26T18:09:08.691Z,18.99
2019-05-26T18:11:42.039Z,18.89
2019-05-26T18:14:15.163Z,18.82
2019-05-26T18:16:48.481Z,18.77
2019-05-26T18:19:21.540Z,18.72
2019-05-26T18:21:54.895Z,18.67
2019-05-26T18:24:28.647Z,18.61
2019-05-26T18:27:01.783Z,18.59
2019-05-26T18:29:35.200Z,18.55
2019-05-26T18:32:08.859Z,18.49
2019-05-26T18:34:42.222Z,18.41
2019-05-26T18:37:15.417Z,18.38
2019-05-26T18:39:48.785Z,18.31
2019-05-26T18:42:22.369Z,18.22
2019-05-26T18:44:56.640Z,18.14
2019-05-26T18:47:30.355Z,18.11
2019-05-26T18:50:03.649Z,18.04
2019-05-26T18:52:37.063Z,18.00
2019-05-26T18:55:10.829Z,17.97
2019-05-26T18:57:44.292Z,17.95
2019-05-26T19:00:18.488Z,17.92
2019-05-26T19:02:51.869Z,17.89
2019-05-26T19:05:33.807Z,17.87
2019-05-26T19:08:00.512Z,17.81
2019-05-26T19:10:33.921Z,17.79
2019-05-26T19:13:10.609Z,17.75
2019-05-26T19:15:42.326Z,17.71
2019-05-26T19:18:20.362Z,17.66
2019-05-26T19:20:51.395Z,17.62
2019-05-26T19:23:24.710Z,17.57
2019-05-26T19:25:58.053Z,17.54
2019-05-26T19:28:33.735Z,17.54
2019-05-26T19:31:07.160Z,17.48
2019-05-26T19:33:41.021Z,17.39
2019-05-26T19:36:14.313Z,17.33
2019-05-26T19:38:47.499Z,17.26
2019-05-26T19:41:20.795Z,17.23
2019-05-26T19:43:54.410Z,17.22
2019-05-26T19:46:29.362Z,17.16
2019-05-26T19:49:02.612Z,17.12
2019-05-26T19:51:36.061Z,17.07
2019-05-26T19:54:09.357Z,17.01
2019-05-26T19:56:42.508Z,16.97
2019-05-26T19:59:15.902Z,16.92
2019-05-26T20:01:49.235Z,16.88
2019-05-26T20:04:22.769Z,16.85
2019-05-26T20:06:56.215Z,16.82
2019-05-26T20:09:31.975Z,16.78
2019-05-26T20:12:07.280Z,16.76
2019-05-26T20:14:40.673Z,16.73
2019-05-26T20:17:14.107Z,16.70
2019-05-26T20:19:47.266Z,16.70
2019-05-26T20:22:24.320Z,16.71
2019-05-26T20:24:55.284Z,16.70
2019-05-26T20:27:28.385Z,16.64
2019-05-26T20:30:01.678Z,16.59
2019-05-26T20:32:36.715Z,16.53
2019-05-26T20:35:10.202Z,16.54
2019-05-26T20:37:43.505Z,16.50
2019-05-26T20:40:16.696Z,16.52
2019-05-26T20:42:53.690Z,16.58
2019-05-26T20:45:26.858Z,16.63
2019-05-26T20:48:01.148Z,16.63
2019-05-26T20:50:34.686Z,16.68
2019-05-26T20:53:07.890Z,16.66
2019-05-26T20:55:41.360Z,16.54
2019-05-26T20:58:14.796Z,16.46
2019-05-26T21:00:47.886Z,16.36
2019-05-26T21:03:21.181Z,16.28
2019-05-26T21:05:54.527Z,16.22
2019-05-26T21:08:27.745Z,16.15
2019-05-26T21:11:01.045Z,16.12
2019-05-26T21:13:34.361Z,16.07
2019-05-26T21:16:07.718Z,16.04
2019-05-26T21:18:40.819Z,16.00
2019-05-26T21:21:14.095Z,15.95
2019-05-26T21:23:47.433Z,15.91
2019-05-26T21:26:20.740Z,15.89
2019-05-26T21:28:53.982Z,15.86
2019-05-26T21:31:27.224Z,15.83
2019-05-26T21:34:00.493Z,15.87
2019-05-26T21:36:33.911Z,15.95
2019-05-26T21:39:08.606Z,15.90
2019-05-26T21:41:41.780Z,15.89
2019-05-26T21:44:15.005Z,15.87
2019-05-26T21:46:48.376Z,15.75
2019-05-26T21:49:21.908Z,15.66
2019-05-26T21:51:55.283Z,15.65
2019-05-26T21:54:29.499Z,15.70
2019-05-26T21:57:02.764Z,15.68
2019-05-26T21:59:36.109Z,15.58
2019-05-26T22:02:09.459Z,15.49
2019-05-26T22:04:42.908Z,15.39
2019-05-26T22:07:16.170Z,15.34
2019-05-26T22:09:50.198Z,15.28
2019-05-26T22:12:23.380Z,15.22
2019-05-26T22:14:56.911Z,15.17
2019-05-26T22:17:30.175Z,15.10
2019-05-26T22:20:03.960Z,15.08
2019-05-26T22:22:38.333Z,15.04
2019-05-26T22:25:11.923Z,14.98
2019-05-26T22:27:45.308Z,14.90
